Time;durP1;ratioP1;P1;durP2;ratioP2;P2;SDS_P1;SDS_P2;PMS_P1;PMS_P2;Temp;Humidity;BMP_temperature;BMP_pressure;BME280_temperature;BME280_humidity;BME280_pressure;Samples;Min_cycle;Max_cycle;Signal;HPM_P1;HPM_P2
2022/10/23 00:00:35;;;;;;;12.75;6.22;;;13.40;99.90;;;;;;5097626;28;20024;-87
2022/10/23 00:03:04;;;;;;;11.77;5.85;;;13.50;99.90;;;;;;5079335;28;20024;-87
2022/10/23 00:05:30;;;;;;;13.02;6.60;;;13.50;99.90;;;;;;5096299;28;20111;-86
2022/10/23 00:08:00;;;;;;;11.77;6.22;;;13.40;99.90;;;;;;5095830;28;20445;-87
2022/10/23 00:10:34;;;;;;;15.05;6.13;;;13.40;99.90;;;;;;5095017;28;20380;-88
2022/10/23 00:13:08;;;;;;;;;;;13.40;99.90;;;;;;5095545;28;20055;-87
2022/10/23 00:15:37;;;;;;;12.85;5.82;;;13.40;99.90;;;;;;5074426;28;19917;-87
2022/10/23 00:18:03;;;;;;;13.07;5.93;;;13.40;99.90;;;;;;5075934;28;20025;-88
2022/10/23 00:20:29;;;;;;;11.60;5.57;;;13.40;99.90;;;;;;5074233;28;20453;-88
2022/10/23 00:22:57;;;;;;;13.15;6.63;;;13.40;99.90;;;;;;5074529;28;20025;-87
2022/10/23 00:25:23;;;;;;;12.40;6.35;;;13.30;99.90;;;;;;5074948;28;20048;-87
2022/10/23 00:27:49;;;;;;;11.15;5.70;;;13.30;99.90;;;;;;5074228;28;20362;-87
2022/10/23 00:30:18;;;;;;;13.85;5.60;;;13.40;99.90;;;;;;5057447;28;20029;-87
2022/10/23 00:32:47;;;;;;;14.55;6.63;;;13.30;99.90;;;;;;5074071;28;20035;-87
2022/10/23 00:35:12;;;;;;;18.15;5.82;;;13.30;99.90;;;;;;5074632;28;20126;-87
2022/10/23 00:37:47;;;;;;;10.25;5.28;;;13.30;99.90;;;;;;5074135;28;20476;-87
2022/10/23 00:40:13;;;;;;;10.57;6.07;;;13.30;99.90;;;;;;5058632;28;20020;-87
2022/10/23 00:42:38;;;;;;;12.57;6.63;;;13.30;99.90;;;;;;5074336;28;20032;-87
2022/10/23 00:45:25;;;;;;;11.25;5.68;;;13.30;99.90;;;;;;5073837;28;20077;-87
2022/10/23 00:47:52;;;;;;;9.90;5.35;;;13.30;99.90;;;;;;5073743;28;20041;-87
2022/10/23 00:50:25;;;;;;;15.30;5.97;;;13.20;99.90;;;;;;5073647;28;20111;-87
2022/10/23 00:52:53;;;;;;;12.05;5.53;;;13.20;99.90;;;;;;5073631;28;20035;-85
2022/10/23 00:55:21;;;;;;;12.27;5.57;;;13.20;99.90;;;;;;5073244;28;20082;-85
2022/10/23 00:57:48;;;;;;;12.63;5.97;;;13.20;99.90;;;;;;5073277;28;20025;-85
2022/10/23 01:00:53;;;;;;;14.77;5.88;;;13.30;99.90;;;;;;5056576;28;20484;-85
2022/10/23 01:03:21;;;;;;;8.77;5.18;;;13.20;99.90;;;;;;5072125;28;20057;-85
2022/10/23 01:06:04;;;;;;;11.35;5.07;;;13.20;99.90;;;;;;5072293;28;20025;-85
2022/10/23 01:08:42;;;;;;;9.98;5.55;;;13.20;99.90;;;;;;5073066;28;20032;-86
2022/10/23 01:11:39;;;;;;;13.18;5.72;;;13.20;99.90;;;;;;5073163;28;20021;-85
2022/10/23 01:14:24;;;;;;;12.43;5.55;;;13.30;99.90;;;;;;5074268;28;20048;-85
2022/10/23 01:17:01;;;;;;;12.35;5.43;;;13.20;99.90;;;;;;5093076;28;20035;-85
2022/10/23 01:19:55;;;;;;;14.70;5.80;;;13.20;99.90;;;;;;5094152;28;20016;-85
2022/10/23 01:22:58;;;;;;;10.20;6.03;;;13.20;99.90;;;;;;5092691;28;20563;-85
2022/10/23 01:25:45;;;;;;;10.45;5.50;;;13.20;99.90;;;;;;5092834;28;20473;-86
2022/10/23 01:28:20;;;;;;;11.48;6.00;;;13.20;99.90;;;;;;5092821;28;20102;-85
2022/10/23 01:30:46;;;;;;;16.40;6.47;;;13.20;99.90;;;;;;5092992;28;20016;-85
2022/10/23 01:33:16;;;;;;;11.18;6.50;;;13.20;99.90;;;;;;5076086;28;20484;-85
2022/10/23 01:35:51;;;;;;;10.80;6.00;;;13.20;99.90;;;;;;5092809;28;20020;-85
2022/10/23 01:38:34;;;;;;;14.48;6.53;;;13.20;99.90;;;;;;5093069;28;20028;-85
2022/10/23 01:41:09;;;;;;;10.23;6.05;;;13.20;99.90;;;;;;5092793;28;20031;-85
2022/10/23 01:43:45;;;;;;;12.02;6.30;;;13.20;99.90;;;;;;5093002;28;20012;-85
2022/10/23 01:46:15;;;;;;;11.88;6.75;;;13.20;99.90;;;;;;5092626;28;20024;-85
2022/10/23 01:48:46;;;;;;;12.63;6.32;;;13.20;99.90;;;;;;5092537;28;20024;-85
2022/10/23 01:51:14;;;;;;;12.63;7.25;;;13.20;99.90;;;;;;5092602;28;20101;-85
2022/10/23 01:53:42;;;;;;;14.73;6.55;;;13.20;99.90;;;;;;5092607;28;20027;-85
2022/10/23 01:56:12;;;;;;;12.23;6.90;;;13.10;99.90;;;;;;5092607;28;20376;-85
2022/10/23 01:58:41;;;;;;;16.20;7.70;;;13.10;99.90;;;;;;5092339;28;20051;-85
2022/10/23 02:01:08;;;;;;;14.70;7.05;;;13.20;99.90;;;;;;5092709;28;20028;-85
2022/10/23 02:03:35;;;;;;;16.98;6.95;;;13.20;99.90;;;;;;5092797;28;20032;-85
2022/10/23 02:06:01;;;;;;;16.23;6.82;;;13.20;99.90;;;;;;5092480;28;20016;-85
2022/10/23 02:08:30;;;;;;;18.25;7.35;;;13.20;99.90;;;;;;5075649;28;20032;-85
2022/10/23 02:11:12;;;;;;;13.35;6.78;;;13.20;99.90;;;;;;5075577;28;20051;-85
2022/10/23 02:14:13;;;;;;;13.95;6.82;;;13.10;99.90;;;;;;5092177;28;20047;-85
2022/10/23 02:16:50;;;;;;;11.57;6.40;;;13.10;99.90;;;;;;5094797;28;20020;-85
2022/10/23 02:19:41;;;;;;;15.15;6.90;;;13.10;99.90;;;;;;5098916;28;20020;-85
2022/10/23 02:22:22;;;;;;;16.55;7.72;;;13.10;99.90;;;;;;5098990;28;20077;-85
2022/10/23 02:24:53;;;;;;;14.75;6.75;;;13.10;99.90;;;;;;5099066;28;20020;-85
2022/10/23 02:27:29;;;;;;;12.60;6.70;;;13.10;99.90;;;;;;5099426;28;20028;-85
2022/10/23 02:30:03;;;;;;;13.20;6.97;;;13.10;99.90;;;;;;5099011;28;20032;-85
2022/10/23 02:32:29;;;;;;;18.08;7.38;;;13.10;99.90;;;;;;5098888;28;20019;-85
2022/10/23 02:34:55;;;;;;;14.85;7.50;;;13.10;99.90;;;;;;5082128;28;20443;-85
2022/10/23 02:37:21;;;;;;;13.63;7.65;;;13.00;99.90;;;;;;5082047;28;20035;-85
2022/10/23 02:39:48;;;;;;;13.98;7.72;;;13.00;99.90;;;;;;5098791;28;20024;-85
2022/10/23 02:42:21;;;;;;;11.80;7.20;;;13.00;99.90;;;;;;5081979;28;20016;-84
2022/10/23 02:45:06;;;;;;;14.13;7.57;;;13.00;99.90;;;;;;5098670;28;20035;-84
2022/10/23 02:47:57;;;;;;;13.43;7.82;;;12.90;99.90;;;;;;5098872;28;20047;-84
2022/10/23 02:50:36;;;;;;;14.85;8.02;;;13.00;99.90;;;;;;5098553;28;20056;-84
2022/10/23 02:53:16;;;;;;;13.80;8.02;;;12.90;99.90;;;;;;5098875;28;20418;-84
2022/10/23 02:55:53;;;;;;;11.65;7.55;;;12.90;99.90;;;;;;5098518;28;20034;-84
2022/10/23 02:58:43;;;;;;;15.40;7.63;;;12.90;99.90;;;;;;5098918;28;20464;-84
2022/10/23 03:01:18;;;;;;;16.17;7.70;;;12.90;99.90;;;;;;5098458;28;20074;-84
2022/10/23 03:03:54;;;;;;;16.40;7.97;;;12.90;99.90;;;;;;5098540;28;20745;-84
2022/10/23 03:06:21;;;;;;;16.10;7.45;;;12.90;99.90;;;;;;5098524;28;20061;-84
2022/10/23 03:08:56;;;;;;;15.35;8.20;;;12.90;99.90;;;;;;5081980;28;20016;-84
2022/10/23 03:11:22;;;;;;;15.52;7.22;;;12.90;99.90;;;;;;5098380;28;20119;-84
2022/10/23 03:13:51;;;;;;;14.55;7.32;;;12.90;99.90;;;;;;5081331;28;20127;-84
2022/10/23 03:16:16;;;;;;;14.95;7.60;;;12.80;99.90;;;;;;5081514;28;20023;-84
2022/10/23 03:18:42;;;;;;;11.55;7.25;;;12.80;99.90;;;;;;5081660;28;20024;-84
2022/10/23 03:21:08;;;;;;;14.63;7.88;;;12.80;99.90;;;;;;5098485;28;20353;-84
2022/10/23 03:23:33;;;;;;;22.00;8.40;;;12.80;99.90;;;;;;5098290;28;20032;-84
2022/10/23 03:25:59;;;;;;;14.85;7.20;;;12.80;99.90;;;;;;5081572;28;20060;-84
2022/10/23 03:28:25;;;;;;;13.00;7.88;;;12.80;99.90;;;;;;5079059;28;20036;-84
2022/10/23 03:30:51;;;;;;;15.00;8.13;;;12.80;99.90;;;;;;5095379;28;20066;-84
2022/10/23 03:33:17;;;;;;;13.27;7.45;;;12.80;99.90;;;;;;5078391;28;20059;-84
2022/10/23 03:35:42;;;;;;;13.32;7.57;;;12.80;99.90;;;;;;5094888;28;20467;-84
2022/10/23 03:38:08;;;;;;;15.90;8.52;;;12.80;99.90;;;;;;5078962;28;20032;-84
2022/10/23 03:40:34;;;;;;;12.02;7.63;;;12.80;99.90;;;;;;5078153;28;20028;-84
2022/10/23 03:42:59;;;;;;;10.57;6.85;;;12.80;99.90;;;;;;5094874;28;20059;-84
2022/10/23 03:45:25;;;;;;;13.38;7.32;;;12.80;99.90;;;;;;5094944;28;20469;-84
2022/10/23 03:47:53;;;;;;;13.55;7.57;;;12.80;99.90;;;;;;5094861;28;20173;-84
2022/10/23 03:50:19;;;;;;;17.15;6.68;;;12.80;99.90;;;;;;5078259;28;20035;-84
2022/10/23 03:52:45;;;;;;;13.60;6.57;;;12.80;99.90;;;;;;5095202;28;20024;-84
2022/10/23 03:55:11;;;;;;;18.25;7.43;;;12.90;99.90;;;;;;5094950;28;20396;-84
2022/10/23 03:57:37;;;;;;;17.30;7.88;;;12.80;99.90;;;;;;5094506;28;20469;-84
2022/10/23 04:00:04;;;;;;;11.23;6.97;;;12.80;99.90;;;;;;5078269;28;20024;-84
2022/10/23 04:02:30;;;;;;;12.15;7.15;;;12.80;99.90;;;;;;5094412;28;20051;-84
2022/10/23 04:04:56;;;;;;;12.05;6.07;;;12.90;99.90;;;;;;5077522;28;20078;-84
2022/10/23 04:07:22;;;;;;;11.65;6.68;;;12.90;99.90;;;;;;5077672;28;20028;-84
2022/10/23 04:09:47;;;;;;;14.25;6.47;;;12.90;99.90;;;;;;5077552;28;20036;-84
2022/10/23 04:12:13;;;;;;;15.60;7.47;;;12.90;99.90;;;;;;5094346;28;20024;-84
2022/10/23 04:14:39;;;;;;;13.88;6.35;;;12.90;99.90;;;;;;5077222;28;20131;-84
2022/10/23 04:17:04;;;;;;;13.57;6.60;;;12.90;99.90;;;;;;5094273;28;20040;-84
2022/10/23 04:19:30;;;;;;;14.93;6.32;;;12.90;99.90;;;;;;5077473;28;20028;-84
2022/10/23 04:21:56;;;;;;;15.57;6.97;;;13.00;99.90;;;;;;5077307;28;20077;-84
2022/10/23 04:24:23;;;;;;;16.60;7.72;;;13.00;99.90;;;;;;5094150;28;20028;-84
2022/10/23 04:26:52;;;;;;;12.80;7.22;;;13.00;99.90;;;;;;5094311;28;20546;-84
2022/10/23 04:29:21;;;;;;;16.83;7.53;;;13.00;99.90;;;;;;5093887;28;20024;-84
2022/10/23 04:31:47;;;;;;;11.85;6.93;;;13.00;99.90;;;;;;5093984;28;20436;-84
2022/10/23 04:34:12;;;;;;;14.10;8.25;;;13.10;99.90;;;;;;5077424;28;20161;-84
2022/10/23 04:36:38;;;;;;;19.30;8.75;;;13.00;99.90;;;;;;5077048;28;20020;-84
2022/10/23 04:39:03;;;;;;;16.45;8.32;;;13.10;99.90;;;;;;5077546;28;20043;-84
2022/10/23 04:41:32;;;;;;;12.40;7.45;;;13.00;99.90;;;;;;5075899;28;20069;-84
2022/10/23 04:43:57;;;;;;;13.57;7.38;;;13.00;99.90;;;;;;5077156;28;20111;-84
2022/10/23 04:46:23;;;;;;;13.45;7.60;;;13.00;99.90;;;;;;5077322;28;20059;-84
2022/10/23 04:48:48;;;;;;;13.80;7.15;;;13.00;99.90;;;;;;5093696;28;20051;-84
2022/10/23 04:51:14;;;;;;;21.88;7.32;;;13.00;99.90;;;;;;5076730;28;20028;-84
2022/10/23 04:53:40;;;;;;;15.52;7.63;;;13.00;99.90;;;;;;5093558;28;20054;-84
2022/10/23 04:56:06;;;;;;;15.30;7.25;;;13.00;99.90;;;;;;5076930;28;20104;-84
2022/10/23 04:58:31;;;;;;;14.10;6.50;;;13.00;99.90;;;;;;5059449;28;20025;-84
2022/10/23 05:00:57;;;;;;;16.17;6.97;;;13.00;99.90;;;;;;5072732;28;20023;-84
2022/10/23 05:03:25;;;;;;;13.23;6.40;;;12.90;99.90;;;;;;5073081;28;20067;-84
2022/10/23 05:05:55;;;;;;;16.58;7.18;;;12.90;99.90;;;;;;5093658;28;20032;-84
2022/10/23 05:08:22;;;;;;;10.60;6.10;;;13.00;99.90;;;;;;5076407;28;20024;-84
2022/10/23 05:10:48;;;;;;;14.75;6.13;;;12.90;99.90;;;;;;5073239;28;20025;-84
2022/10/23 05:13:16;;;;;;;14.18;5.95;;;13.00;99.90;;;;;;5072921;28;20025;-84
2022/10/23 05:15:41;;;;;;;16.65;6.80;;;12.90;99.90;;;;;;5073995;28;20051;-85
2022/10/23 05:18:16;;;;;;;15.95;7.07;;;13.00;99.90;;;;;;5076243;28;20461;-84
2022/10/23 05:20:43;;;;;;;11.38;6.47;;;13.00;99.90;;;;;;5073088;28;20024;-84
2022/10/23 05:23:12;;;;;;;10.82;6.20;;;13.00;99.90;;;;;;5056182;28;20028;-84
2022/10/23 05:25:38;;;;;;;12.52;6.28;;;13.00;99.90;;;;;;5073020;28;20074;-84
2022/10/23 05:28:03;;;;;;;13.95;5.95;;;13.00;99.90;;;;;;5072718;28;20025;-84
2022/10/23 05:30:31;;;;;;;13.18;6.00;;;13.00;99.90;;;;;;5074272;28;20104;-84
2022/10/23 05:32:59;;;;;;;15.10;5.90;;;13.10;99.90;;;;;;5056475;28;20025;-84
2022/10/23 05:35:25;;;;;;;16.15;7.13;;;13.00;99.90;;;;;;5073315;28;20396;-84
2022/10/23 05:37:53;;;;;;;11.93;6.10;;;13.10;99.90;;;;;;5055897;28;20025;-84
2022/10/23 05:40:18;;;;;;;14.48;5.85;;;13.10;99.90;;;;;;5055797;28;20024;-84
2022/10/23 05:42:44;;;;;;;9.70;5.68;;;13.10;99.90;;;;;;5072271;28;20709;-85
2022/10/23 05:45:10;;;;;;;15.65;6.75;;;13.20;99.90;;;;;;5072481;28;20468;-84
2022/10/23 05:47:36;;;;;;;10.40;6.00;;;13.20;99.90;;;;;;5055748;28;20475;-84
2022/10/23 05:50:02;;;;;;;11.55;5.65;;;13.20;99.90;;;;;;5074153;28;20059;-84
2022/10/23 05:52:27;;;;;;;11.70;5.47;;;13.30;99.90;;;;;;5072300;28;20460;-84
2022/10/23 05:54:53;;;;;;;11.70;5.28;;;13.20;99.90;;;;;;5072206;28;20031;-84
2022/10/23 05:57:19;;;;;;;11.80;5.63;;;13.30;99.90;;;;;;5055572;28;20040;-84
2022/10/23 05:59:44;;;;;;;10.15;4.95;;;13.30;99.90;;;;;;5055556;28;20036;-84
2022/10/23 06:02:10;;;;;;;11.05;5.38;;;13.40;99.90;;;;;;5072609;28;20036;-84
2022/10/23 06:04:35;;;;;;;13.15;5.32;;;13.40;99.90;;;;;;5055660;28;20032;-85
2022/10/23 06:07:02;;;;;;;11.40;5.40;;;13.40;99.90;;;;;;5072257;28;20046;-84
2022/10/23 06:09:28;;;;;;;12.98;4.97;;;13.40;99.90;;;;;;5072383;28;20024;-85
2022/10/23 06:11:53;;;;;;;9.52;5.53;;;13.50;99.90;;;;;;5072705;28;20027;-86
2022/10/23 06:14:19;;;;;;;11.88;5.38;;;13.50;99.90;;;;;;5072259;28;20053;-86
2022/10/23 06:16:45;;;;;;;12.50;5.28;;;13.50;99.90;;;;;;5072111;28;20481;-86
2022/10/23 06:19:12;;;;;;;9.85;4.45;;;13.50;99.90;;;;;;5072635;28;20024;-85
2022/10/23 06:21:39;;;;;;;9.18;4.63;;;13.50;99.90;;;;;;5055750;28;20024;-86
2022/10/23 06:24:05;;;;;;;11.23;5.50;;;13.50;99.90;;;;;;5072917;28;20056;-86
2022/10/23 06:26:31;;;;;;;10.05;5.55;;;13.50;99.90;;;;;;5072292;28;20020;-85
2022/10/23 06:28:57;;;;;;;11.85;6.10;;;13.50;99.90;;;;;;5055824;28;20480;-84
2022/10/23 06:31:27;;;;;;;12.68;5.43;;;13.50;99.90;;;;;;5072336;28;20020;-86
2022/10/23 06:33:56;;;;;;;11.02;5.30;;;13.50;99.90;;;;;;5073413;28;20024;-86
2022/10/23 06:36:21;;;;;;;9.93;5.18;;;13.70;99.90;;;;;;5072285;28;20461;-86
2022/10/23 06:38:48;;;;;;;14.13;5.78;;;13.60;99.90;;;;;;5073400;28;20147;-86
2022/10/23 06:41:19;;;;;;;11.68;5.35;;;13.60;99.90;;;;;;5072420;28;20025;-86
2022/10/23 06:43:49;;;;;;;10.02;5.38;;;13.60;99.90;;;;;;5071962;28;20021;-86
2022/10/23 06:46:17;;;;;;;7.97;5.25;;;13.60;99.90;;;;;;5055501;28;20017;-85
2022/10/23 06:48:42;;;;;;;10.68;5.65;;;13.70;99.90;;;;;;5072248;28;20052;-85
2022/10/23 06:51:10;;;;;;;9.23;4.88;;;13.70;99.90;;;;;;5055443;28;20473;-85
2022/10/23 06:53:37;;;;;;;10.23;5.05;;;13.70;99.90;;;;;;5071783;28;20127;-84
2022/10/23 06:56:04;;;;;;;12.40;5.38;;;13.70;99.90;;;;;;5071538;28;20091;-84
2022/10/23 06:58:33;;;;;;;15.75;5.65;;;13.70;99.90;;;;;;5071732;28;20021;-84
2022/10/23 07:01:04;;;;;;;10.55;5.68;;;13.80;99.90;;;;;;5055841;28;20108;-84
2022/10/23 07:03:30;;;;;;;15.30;6.30;;;13.80;99.90;;;;;;5072651;28;20025;-84
2022/10/23 07:06:00;;;;;;;9.00;4.90;;;13.70;99.90;;;;;;5058733;28;20024;-84
2022/10/23 07:08:26;;;;;;;12.18;5.97;;;13.90;99.90;;;;;;5058718;28;20029;-83
2022/10/23 07:10:52;;;;;;;10.88;5.13;;;13.80;99.90;;;;;;5058859;28;20032;-84
2022/10/23 07:13:17;;;;;;;11.32;5.28;;;13.80;99.90;;;;;;5075396;28;20090;-85
2022/10/23 07:15:43;;;;;;;13.07;5.40;;;13.80;99.90;;;;;;5058543;28;20123;-84
2022/10/23 07:18:14;;;;;;;10.48;4.68;;;13.80;99.90;;;;;;5058856;28;20056;-84
2022/10/23 07:20:46;;;;;;;11.02;5.43;;;13.90;99.90;;;;;;5059673;28;20017;-85
2022/10/23 07:23:14;;;;;;;11.00;5.60;;;13.90;99.90;;;;;;5059180;28;20028;-85
2022/10/23 07:25:40;;;;;;;10.68;5.15;;;13.90;99.90;;;;;;5075286;28;20029;-85
2022/10/23 07:28:06;;;;;;;9.38;4.75;;;13.90;99.90;;;;;;5058463;28;20054;-84
2022/10/23 07:30:32;;;;;;;10.68;5.18;;;13.90;99.90;;;;;;5058323;28;20039;-84
2022/10/23 07:32:58;;;;;;;7.88;4.18;;;14.00;99.90;;;;;;5058261;28;20392;-85
2022/10/23 07:35:23;;;;;;;12.18;5.15;;;14.00;99.90;;;;;;5075096;28;20017;-84
2022/10/23 07:37:49;;;;;;;13.68;4.80;;;14.10;99.90;;;;;;5075176;28;20016;-85
2022/10/23 07:40:16;;;;;;;10.07;5.55;;;14.10;99.90;;;;;;5074639;28;20024;-84
2022/10/23 07:42:41;;;;;;;11.45;5.47;;;14.10;99.90;;;;;;5074677;28;20423;-85
2022/10/23 07:45:07;;;;;;;11.30;4.97;;;14.10;99.90;;;;;;5074832;28;20033;-84
2022/10/23 07:47:33;;;;;;;9.27;4.55;;;14.10;99.90;;;;;;5058047;28;20029;-84
2022/10/23 07:49:59;;;;;;;9.43;4.28;;;14.20;99.90;;;;;;5058068;28;20047;-85
2022/10/23 07:52:25;;;;;;;8.48;4.20;;;14.20;99.90;;;;;;5057960;28;20386;-84
2022/10/23 07:54:51;;;;;;;10.05;4.57;;;14.30;99.90;;;;;;5074414;28;20031;-84
2022/10/23 07:57:17;;;;;;;10.13;4.97;;;14.30;99.90;;;;;;5075632;28;20048;-84
2022/10/23 07:59:44;;;;;;;10.60;4.88;;;14.30;99.90;;;;;;5074415;28;20439;-84
2022/10/23 08:02:14;;;;;;;9.98;4.25;;;14.40;99.90;;;;;;5074460;28;20017;-84
2022/10/23 08:04:40;;;;;;;9.20;4.88;;;14.40;99.90;;;;;;5074452;28;20044;-84
2022/10/23 08:07:05;;;;;;;18.45;5.38;;;14.40;99.90;;;;;;5058173;28;20079;-84
2022/10/23 08:09:33;;;;;;;11.82;4.70;;;14.50;99.90;;;;;;5058660;28;20040;-84
2022/10/23 08:11:59;;;;;;;12.60;4.18;;;14.50;99.90;;;;;;5075360;28;20017;-84
2022/10/23 08:14:25;;;;;;;10.13;4.38;;;14.50;99.90;;;;;;5060328;28;20051;-84
2022/10/23 08:16:51;;;;;;;9.88;3.72;;;14.50;99.90;;;;;;5076886;28;20020;-84
2022/10/23 08:19:19;;;;;;;8.30;4.25;;;14.50;99.90;;;;;;5075271;28;20381;-84
2022/10/23 08:21:53;;;;;;;11.32;4.55;;;14.60;99.90;;;;;;5074912;28;20024;-87
2022/10/23 08:24:19;;;;;;;8.60;3.65;;;14.60;99.90;;;;;;5058219;28;20380;-86
2022/10/23 08:26:45;;;;;;;9.80;4.20;;;14.70;99.90;;;;;;5074541;28;20021;-86
2022/10/23 08:29:31;;;;;;;12.38;5.10;;;14.60;99.90;;;;;;5074330;28;20511;-86
2022/10/23 08:31:59;;;;;;;11.00;3.83;;;14.70;99.90;;;;;;5058733;28;20078;-87
2022/10/23 08:34:29;;;;;;;10.52;3.38;;;14.70;99.90;;;;;;5074328;28;20440;-88
2022/10/23 08:36:57;;;;;;;8.93;3.90;;;14.80;99.90;;;;;;5073758;28;20468;-88
2022/10/23 08:39:23;;;;;;;8.00;3.70;;;14.90;99.90;;;;;;5075301;28;20016;-88
2022/10/23 08:42:01;;;;;;;7.55;3.22;;;14.90;99.90;;;;;;5074548;28;20027;-88
2022/10/23 08:44:31;;;;;;;9.75;3.65;;;15.00;99.90;;;;;;5075206;28;20021;-88
2022/10/23 08:47:18;;;;;;;8.45;3.50;;;15.00;99.90;;;;;;5074566;28;20021;-88
2022/10/23 08:50:02;;;;;;;6.57;3.13;;;15.10;99.90;;;;;;5073613;28;20496;-89
2022/10/23 08:52:43;;;;;;;8.18;3.40;;;15.10;99.90;;;;;;5073939;28;20048;-88
2022/10/23 08:55:22;;;;;;;9.60;3.15;;;15.10;99.90;;;;;;5074007;28;20029;-88
2022/10/23 08:58:09;;;;;;;15.25;3.25;;;15.30;99.90;;;;;;5074361;28;20103;-88
2022/10/23 09:00:44;;;;;;;7.45;2.92;;;15.30;99.90;;;;;;5073983;28;20020;-89
2022/10/23 09:03:15;;;;;;;8.30;3.15;;;15.40;99.90;;;;;;5074052;28;20016;-88
2022/10/23 09:06:08;;;;;;;7.63;3.67;;;15.50;99.90;;;;;;5074116;28;20056;-88
2022/10/23 09:09:06;;;;;;;9.02;3.47;;;15.50;99.90;;;;;;5073883;28;20024;-88
2022/10/23 09:11:40;;;;;;;9.43;2.85;;;15.60;99.90;;;;;;5073797;28;20032;-89
2022/10/23 09:14:47;;;;;;;10.95;3.42;;;15.70;99.90;;;;;;5073158;28;20052;-88
2022/10/23 09:17:25;;;;;;;5.93;2.45;;;15.70;99.90;;;;;;5051684;28;20082;-89
2022/10/23 09:20:41;;;;;;;7.05;2.78;;;15.70;99.90;;;;;;5073469;28;20028;-88
2022/10/23 09:23:20;;;;;;;9.38;2.80;;;15.80;99.90;;;;;;5071855;28;20025;-88
2022/10/23 09:25:54;;;;;;;8.75;2.58;;;15.80;99.90;;;;;;5073096;28;20119;-88
2022/10/23 09:28:31;;;;;;;9.77;2.80;;;15.80;99.90;;;;;;5089456;28;20016;-87
2022/10/23 09:31:11;;;;;;;8.57;2.42;;;15.80;99.90;;;;;;5093502;28;20472;-87
2022/10/23 09:33:42;;;;;;;7.75;2.75;;;15.90;99.90;;;;;;5093542;28;20024;-88
2022/10/23 09:36:14;;;;;;;7.75;2.90;;;15.90;99.90;;;;;;5093388;28;20024;-88
2022/10/23 09:38:48;;;;;;;6.97;2.85;;;15.90;99.90;;;;;;5093548;28;20115;-89
2022/10/23 09:41:26;;;;;;;8.93;3.17;;;15.90;99.90;;;;;;5094272;28;20047;-89
2022/10/23 09:44:16;;;;;;;9.00;3.05;;;15.90;99.90;;;;;;5093491;28;20024;-88
2022/10/23 09:46:49;;;;;;;6.63;2.38;;;16.00;99.90;;;;;;5093541;28;20051;-89
2022/10/23 09:49:20;;;;;;;7.53;2.70;;;16.00;99.90;;;;;;5093746;28;20435;-88
2022/10/23 09:52:03;;;;;;;8.82;1.83;;;16.10;99.90;;;;;;5093573;28;20098;-88
2022/10/23 09:54:44;;;;;;;7.85;2.60;;;16.10;99.90;;;;;;5093369;28;20020;-88
2022/10/23 09:57:41;;;;;;;11.80;2.88;;;16.10;99.90;;;;;;5093045;28;20054;-87
2022/10/23 10:00:13;;;;;;;6.13;2.28;;;16.20;99.90;;;;;;5093114;28;20353;-87
2022/10/23 10:02:55;;;;;;;8.43;2.10;;;16.30;99.90;;;;;;5092877;28;20794;-87
2022/10/23 10:05:27;;;;;;;5.13;1.83;;;16.30;99.90;;;;;;5093060;28;20020;-87
2022/10/23 10:08:04;;;;;;;6.57;1.83;;;16.30;99.90;;;;;;5094091;28;20016;-87
2022/10/23 10:10:38;;;;;;;8.15;2.17;;;16.40;99.90;;;;;;5092999;28;20487;-87
2022/10/23 10:13:32;;;;;;;5.85;2.45;;;16.50;99.90;;;;;;5092414;28;20020;-87
2022/10/23 10:16:19;;;;;;;3.70;1.60;;;16.50;99.90;;;;;;5094230;28;20078;-88
2022/10/23 10:19:19;;;;;;;6.57;2.47;;;16.60;99.90;;;;;;5092966;28;20035;-88
2022/10/23 10:22:07;;;;;;;5.13;2.15;;;16.70;99.90;;;;;;5050149;28;20160;-88
2022/10/23 10:25:19;;;;;;;6.10;2.28;;;16.80;99.90;;;;;;5093238;28;20464;-88
2022/10/23 10:28:19;;;;;;;7.68;2.25;;;16.80;99.90;;;;;;5093553;28;20556;-88
2022/10/23 10:31:17;;;;;;;7.40;2.80;;;16.90;99.90;;;;;;5015225;28;20064;-88
2022/10/23 10:34:24;;;;;;;7.10;1.90;;;17.00;99.90;;;;;;5016262;28;20034;-88
2022/10/23 10:37:25;;;;;;;7.80;2.40;;;17.00;99.90;;;;;;5092673;28;20484;-86
2022/10/23 10:40:08;;;;;;;8.60;2.33;;;17.10;99.90;;;;;;5092534;28;20093;-88
2022/10/23 10:42:45;;;;;;;7.10;2.35;;;17.10;99.90;;;;;;5096916;28;20126;-87
2022/10/23 10:45:25;;;;;;;9.75;2.78;;;17.10;99.90;;;;;;5096062;28;20028;-83
2022/10/23 10:48:12;;;;;;;8.35;2.42;;;17.20;99.90;;;;;;5095890;28;20065;-82
2022/10/23 10:51:06;;;;;;;7.88;2.17;;;17.20;99.90;;;;;;5096257;28;20701;-82
2022/10/23 10:53:44;;;;;;;6.53;2.17;;;17.20;99.90;;;;;;5096159;28;20026;-83
2022/10/23 10:56:14;;;;;;;5.78;2.25;;;17.30;99.90;;;;;;5092569;28;20480;-83
2022/10/23 10:58:57;;;;;;;5.30;2.17;;;17.30;99.90;;;;;;5075601;28;20021;-84
2022/10/23 11:01:32;;;;;;;5.28;1.63;;;17.40;99.90;;;;;;5075328;28;20012;-83
2022/10/23 11:04:16;;;;;;;12.23;2.95;;;17.40;99.90;;;;;;5075299;28;20032;-83
2022/10/23 11:06:44;;;;;;;5.63;2.05;;;17.50;99.90;;;;;;5075314;28;20407;-83
2022/10/23 11:09:19;;;;;;;9.60;2.65;;;17.50;99.90;;;;;;5075475;28;20380;-83
2022/10/23 11:11:46;;;;;;;6.07;2.17;;;17.60;99.90;;;;;;5075209;28;20380;-83
2022/10/23 11:14:21;;;;;;;6.28;2.17;;;17.60;99.90;;;;;;5074934;28;20448;-82
2022/10/23 11:17:11;;;;;;;4.53;1.88;;;17.70;99.90;;;;;;5074948;28;20063;-83
2022/10/23 11:20:15;;;;;;;10.93;1.83;;;17.70;99.70;;;;;;5075079;28;20021;-84
2022/10/23 11:22:49;;;;;;;5.43;2.05;;;17.80;99.40;;;;;;5075056;28;20020;-83
2022/10/23 11:25:52;;;;;;;4.40;1.70;;;17.80;99.50;;;;;;5074903;28;20113;-83
2022/10/23 11:28:22;;;;;;;4.93;1.83;;;17.90;99.10;;;;;;5075276;28;20033;-83
2022/10/23 11:31:06;;;;;;;6.47;2.00;;;18.00;99.00;;;;;;5074896;28;20033;-83
2022/10/23 11:33:54;;;;;;;6.40;2.00;;;18.10;98.90;;;;;;5074759;28;20024;-82
2022/10/23 11:36:42;;;;;;;5.15;1.75;;;18.20;98.60;;;;;;5075982;28;20063;-82
2022/10/23 11:39:29;;;;;;;4.30;1.65;;;18.40;98.30;;;;;;5075977;28;20016;-84
2022/10/23 11:41:59;;;;;;;7.00;1.95;;;18.50;98.00;;;;;;5074934;28;20017;-87
2022/10/23 11:44:35;;;;;;;4.28;1.73;;;18.50;97.90;;;;;;5074818;28;20024;-86
2022/10/23 11:47:25;;;;;;;5.05;1.55;;;18.60;97.40;;;;;;5075194;28;20366;-88
2022/10/23 11:50:06;;;;;;;5.30;1.42;;;18.80;97.30;;;;;;5066328;28;20040;-87
2022/10/23 11:52:37;;;;;;;7.90;1.90;;;18.90;96.90;;;;;;5075283;28;20074;-86
2022/10/23 11:55:41;;;;;;;5.68;1.77;;;18.80;96.50;;;;;;5074944;28;20025;-87
2022/10/23 11:58:10;;;;;;;3.50;1.42;;;18.90;96.20;;;;;;5018786;28;20060;-84
2022/10/23 12:00:50;;;;;;;4.53;1.35;;;18.90;96.20;;;;;;5075798;28;20549;-85
2022/10/23 12:03:25;;;;;;;6.43;1.75;;;19.00;96.00;;;;;;5074892;28;20063;-85
2022/10/23 12:06:00;;;;;;;4.75;1.58;;;19.10;95.80;;;;;;5074419;28;20569;-86
2022/10/23 12:08:30;;;;;;;8.90;1.90;;;19.30;95.80;;;;;;5074340;28;20032;-85
2022/10/23 12:10:56;;;;;;;3.67;1.50;;;19.50;95.90;;;;;;5074294;28;20019;-86
2022/10/23 12:13:30;;;;;;;6.93;1.40;;;19.70;95.60;;;;;;5057367;28;20047;-86
2022/10/23 12:15:59;;;;;;;5.03;1.70;;;19.90;95.00;;;;;;5074084;28;20465;-85
2022/10/23 12:18:25;;;;;;;5.65;1.77;;;20.20;94.50;;;;;;5074464;28;20017;-85
2022/10/23 12:21:02;;;;;;;6.20;1.60;;;20.40;94.20;;;;;;5075284;28;20020;-86
2022/10/23 12:23:46;;;;;;;6.75;1.40;;;20.60;93.80;;;;;;5075619;28;20029;-86
2022/10/23 12:26:39;;;;;;;4.13;1.40;;;20.90;93.40;;;;;;5073771;28;20536;-85
2022/10/23 12:29:26;;;;;;;7.80;1.60;;;21.20;92.70;;;;;;5073938;28;20056;-85
2022/10/23 12:32:11;;;;;;;6.72;1.50;;;21.40;91.90;;;;;;5074261;28;20028;-85
2022/10/23 12:35:04;;;;;;;5.00;1.38;;;21.50;91.30;;;;;;5074366;28;20025;-86
2022/10/23 12:37:51;;;;;;;5.78;1.52;;;21.50;90.60;;;;;;5073895;28;20030;-87
2022/10/23 12:40:17;;;;;;;4.53;1.30;;;21.50;89.90;;;;;;5075086;28;20021;-86
2022/10/23 12:42:53;;;;;;;5.13;1.50;;;21.50;89.40;;;;;;5057070;28;20036;-86
2022/10/23 12:45:23;;;;;;;4.78;1.52;;;21.50;88.70;;;;;;5073797;28;20029;-85
2022/10/23 12:47:52;;;;;;;4.68;1.70;;;21.50;88.20;;;;;;5074054;28;20526;-86
2022/10/23 12:50:20;;;;;;;4.18;1.33;;;21.40;87.90;;;;;;5073722;28;20423;-85
2022/10/23 12:52:59;;;;;;;6.13;1.75;;;21.50;87.70;;;;;;5073459;28;20385;-86
2022/10/23 12:55:30;;;;;;;5.13;1.42;;;21.50;87.20;;;;;;5073644;28;20111;-87
2022/10/23 12:57:56;;;;;;;4.75;1.25;;;21.50;86.90;;;;;;5073900;28;20032;-86
2022/10/23 13:00:23;;;;;;;5.45;1.20;;;21.50;86.70;;;;;;5073514;28;20017;-86
2022/10/23 13:03:02;;;;;;;4.50;1.17;;;21.60;86.30;;;;;;5083408;28;20020;-87
2022/10/23 13:05:30;;;;;;;5.75;1.33;;;21.60;85.50;;;;;;5093257;28;20632;-86
2022/10/23 13:07:58;;;;;;;5.30;1.00;;;21.60;84.60;;;;;;5076636;28;20564;-87
2022/10/23 13:10:24;;;;;;;2.58;1.13;;;21.50;84.40;;;;;;5094614;28;20027;-86